Butts, Georgia
Current Conditions -  °F | °C
As of 2:55 PM on Sunday 21 Dec 2014 (Local Time) from KJYL Reporting Station
Overcast Overcast  
Wind Chill: 45°   Ceiling: 3600
Heat Index: 49°   Visibility: 10mi
Dew Point: 45°   Wind: 7mph
Humidity: 88%   Direction: 70°ENE
Pressure: 30.14"   Gusts: NA
Location:  32.7727°N, 81.9794°W
Report Text: KJYL 211955Z AUTO 07006KT 10SM OVC036 09/07 A3014 RMK AO2 T00920073
Loading
Personal Weather Stations






























Interactive Weather Map New forecast layout! Learn more

10-Day Weather Forecast

Advertisements
Track Severe Weather on mobile